Time;durP1;ratioP1;P1;durP2;ratioP2;P2;SDS_P1;SDS_P2;PMS_P1;PMS_P2;Temp;Humidity;BMP_temperature;BMP_pressure;BME280_temperature;BME280_humidity;BME280_pressure;Samples;Min_cycle;Max_cycle;Signal;HPM_P1;HPM_P2
2021/09/24 00:00:11;;;;;;;5.07;3.03;;;8.90;99.90;8.70;96725.00;;;;4991224;28;20605;-85
2021/09/24 00:03:02;;;;;;;4.83;3.73;;;8.90;99.90;8.70;96734.00;;;;5001001;28;20290;-86
2021/09/24 00:05:51;;;;;;;5.73;3.20;;;8.00;99.90;8.80;96717.00;;;;4992369;28;20230;-84
2021/09/24 00:08:42;;;;;;;4.10;3.70;;;9.00;99.90;8.90;96725.00;;;;4982793;28;20216;-82
2021/09/24 00:11:31;;;;;;;7.33;3.37;;;9.00;99.90;8.70;96722.00;;;;4992366;28;20210;-85
2021/09/24 00:14:20;;;;;;;3.63;3.10;;;9.00;99.90;8.80;96720.00;;;;4993117;28;20230;-86
2021/09/24 00:17:09;;;;;;;6.10;3.47;;;9.00;99.90;8.80;96723.00;;;;4992518;28;20207;-84
2021/09/24 00:20:00;;;;;;;5.07;3.63;;;9.10;99.90;8.90;96718.00;;;;4991301;28;20223;-83
2021/09/24 00:22:49;;;;;;;3.50;3.20;;;9.10;99.90;9.00;96722.00;;;;4992057;28;20226;-84
2021/09/24 00:25:38;;;;;;;3.57;3.27;;;9.20;99.90;8.60;96717.00;;;;4992459;28;20703;-85
2021/09/24 00:28:27;;;;;;;3.97;3.40;;;9.10;99.90;8.50;96708.00;;;;4992304;28;20221;-84
2021/09/24 00:31:16;;;;;;;4.30;3.27;;;9.00;99.90;8.60;96712.00;;;;4991274;28;20301;-84
2021/09/24 00:34:05;;;;;;;4.23;3.43;;;9.00;99.90;8.50;96709.00;;;;4992428;28;20297;-83
2021/09/24 00:36:55;;;;;;;4.23;2.60;;;8.90;99.90;8.80;96688.00;;;;4983041;28;20299;-84
2021/09/24 00:39:45;;;;;;;4.37;3.67;;;9.00;99.90;8.80;96698.00;;;;4971961;28;20226;-83
2021/09/24 00:42:34;;;;;;;4.27;3.30;;;9.00;99.90;8.80;96679.00;;;;4980075;28;20238;-85
2021/09/24 00:45:23;;;;;;;3.50;2.80;;;9.00;99.90;8.30;96677.00;;;;4991592;28;20396;-87
2021/09/24 00:48:12;;;;;;;6.03;3.30;;;9.00;99.90;8.50;96674.00;;;;4992336;28;20286;-83
2021/09/24 00:51:02;;;;;;;2.90;2.60;;;8.90;99.90;8.50;96668.00;;;;4990790;28;20278;-86
2021/09/24 00:53:52;;;;;;;4.70;3.30;;;8.90;99.90;8.60;96656.00;;;;4992206;28;20234;-85
2021/09/24 00:56:42;;;;;;;6.27;3.07;;;8.90;99.90;8.60;96658.00;;;;4989950;28;20214;-83
2021/09/24 00:59:31;;;;;;;2.77;2.57;;;8.90;99.90;8.80;96657.00;;;;4991532;28;20221;-84
2021/09/24 01:02:20;;;;;;;4.53;2.97;;;8.90;99.90;8.40;96668.00;;;;4990948;28;20910;-87
2021/09/24 01:05:10;;;;;;;4.37;3.13;;;8.90;99.90;8.40;96679.00;;;;4990753;28;20234;-87
2021/09/24 01:07:59;;;;;;;3.07;2.77;;;8.90;99.90;8.60;96668.00;;;;4993075;28;20203;-86
2021/09/24 01:10:50;;;;;;;3.27;2.97;;;8.90;99.90;8.50;96646.00;;;;4990639;28;20250;-83
2021/09/24 01:13:39;;;;;;;5.50;3.60;;;8.90;99.90;8.70;96645.00;;;;4990956;28;20615;-83
2021/09/24 01:16:29;;;;;;;5.07;3.70;;;8.90;99.90;8.90;96650.00;;;;4992044;28;20211;-83
2021/09/24 01:19:18;;;;;;;3.90;2.97;;;9.00;99.90;9.00;96648.00;;;;4989541;28;20251;-84
2021/09/24 01:22:09;;;;;;;3.30;2.80;;;9.00;99.90;8.60;96655.00;;;;4991410;28;20270;-82
2021/09/24 01:24:58;;;;;;;5.20;3.47;;;9.10;99.90;8.60;96650.00;;;;4992117;28;20221;-86
2021/09/24 01:27:47;;;;;;;3.90;3.17;;;9.10;99.90;8.70;96648.00;;;;4991302;28;20282;-83
2021/09/24 01:30:36;;;;;;;4.03;3.40;;;9.00;99.90;8.70;96642.00;;;;4989353;28;20682;-86
2021/09/24 01:33:25;;;;;;;3.50;3.20;;;9.00;99.90;8.70;96642.00;;;;4990510;28;20234;-85
2021/09/24 01:36:14;;;;;;;4.00;3.27;;;9.00;99.90;8.50;96645.00;;;;4999117;28;20207;-85
2021/09/24 01:39:07;;;;;;;4.07;3.23;;;9.00;99.90;8.60;96642.00;;;;4990723;28;20282;-81
2021/09/24 01:41:56;;;;;;;6.17;2.80;;;8.90;99.90;8.70;96640.00;;;;4988954;28;20687;-85
2021/09/24 01:44:45;;;;;;;4.90;4.23;;;9.00;99.90;8.90;96651.00;;;;4990106;28;20230;-83
2021/09/24 01:47:34;;;;;;;4.10;3.20;;;9.00;99.90;8.60;96654.00;;;;4991011;28;20592;-84
2021/09/24 01:50:23;;;;;;;3.83;3.43;;;9.00;99.90;8.60;96646.00;;;;4989216;28;20211;-85
2021/09/24 01:53:12;;;;;;;3.03;2.70;;;9.00;99.90;8.70;96650.00;;;;4990535;28;20745;-83
2021/09/24 01:56:02;;;;;;;3.93;3.13;;;9.00;99.90;8.80;96659.00;;;;4979422;28;20211;-84
2021/09/24 01:58:51;;;;;;;5.87;3.53;;;9.00;99.90;8.70;96654.00;;;;4971789;28;20627;-84
2021/09/24 02:01:40;;;;;;;3.03;2.47;;;9.00;99.90;8.80;96652.00;;;;4971906;28;20203;-84
2021/09/24 02:04:29;;;;;;;4.07;2.80;;;9.00;99.90;8.90;96641.00;;;;4986034;28;20229;-83
2021/09/24 02:07:18;;;;;;;3.27;2.77;;;9.10;99.90;9.10;96648.00;;;;4991262;28;20713;-83
2021/09/24 02:10:09;;;;;;;2.93;2.73;;;9.10;99.90;8.90;96640.00;;;;4988581;28;20268;-82
2021/09/24 02:13:01;;;;;;;2.93;2.20;;;9.10;99.90;8.70;96640.00;;;;4990605;28;20350;-83
2021/09/24 02:15:50;;;;;;;4.13;2.67;;;9.10;99.90;8.90;96631.00;;;;4989614;28;20213;-86
2021/09/24 02:18:40;;;;;;;5.17;2.57;;;9.20;99.90;8.90;96634.00;;;;4980571;28;20284;-84
2021/09/24 02:21:29;;;;;;;5.87;3.33;;;9.20;99.90;9.10;96641.00;;;;4989260;28;20225;-83
2021/09/24 02:24:18;;;;;;;7.03;2.70;;;9.20;99.90;9.00;96642.00;;;;4989333;28;20238;-87
2021/09/24 02:27:08;;;;;;;5.13;2.70;;;9.20;99.90;8.70;96640.00;;;;4989884;28;20230;-84
2021/09/24 02:29:58;;;;;;;3.93;2.70;;;9.20;99.90;8.90;96629.00;;;;4986056;28;20636;-84
2021/09/24 02:32:47;;;;;;;4.90;3.53;;;9.20;99.90;9.00;96624.00;;;;4991058;28;20614;-85
2021/09/24 02:35:36;;;;;;;3.47;2.80;;;9.20;99.90;9.10;96634.00;;;;5000810;28;20206;-84
2021/09/24 02:38:25;;;;;;;3.20;2.90;;;9.20;99.90;9.00;96635.00;;;;4989018;28;20585;-83
2021/09/24 02:41:14;;;;;;;4.43;3.17;;;9.20;99.90;9.10;96633.00;;;;4988694;28;20209;-84
2021/09/24 02:44:04;;;;;;;2.97;2.67;;;9.20;99.90;9.00;96645.00;;;;4989381;28;20281;-85
2021/09/24 02:46:54;;;;;;;2.50;2.30;;;9.30;99.90;8.80;96635.00;;;;4989806;28;20888;-84
2021/09/24 02:49:44;;;;;;;5.17;3.23;;;9.20;99.90;8.90;96627.00;;;;4989135;28;20210;-85
2021/09/24 02:52:33;;;;;;;3.10;2.77;;;9.20;99.90;8.80;96630.00;;;;4989614;28;20274;-85
2021/09/24 02:55:22;;;;;;;3.13;2.83;;;9.20;99.90;8.70;96629.00;;;;4991300;28;20217;-85
2021/09/24 02:58:11;;;;;;;3.37;2.80;;;9.10;99.90;8.60;96626.00;;;;4990512;28;20210;-85
2021/09/24 03:01:00;;;;;;;2.93;2.73;;;9.10;99.90;8.60;96630.00;;;;4987636;28;20222;-82
2021/09/24 03:03:50;;;;;;;4.13;3.20;;;9.00;99.90;8.60;96642.00;;;;4989832;28;20234;-84
2021/09/24 03:06:40;;;;;;;2.87;2.57;;;9.00;99.90;8.50;96622.00;;;;4989809;28;20646;-83
2021/09/24 03:09:29;;;;;;;3.93;2.97;;;9.00;99.90;8.60;96627.00;;;;4988477;28;20233;-85
2021/09/24 03:12:18;;;;;;;4.00;3.27;;;9.00;99.90;8.70;96625.00;;;;4989975;28;20285;-81
2021/09/24 03:15:10;;;;;;;5.90;3.23;;;8.90;99.90;8.60;96643.00;;;;4990508;28;20722;-83
2021/09/24 03:17:58;;;;;;;4.07;3.23;;;8.90;99.90;8.70;96642.00;;;;4987978;28;20203;-86
2021/09/24 03:20:50;;;;;;;6.30;3.70;;;8.90;99.90;8.70;96633.00;;;;4988364;28;20245;-85
2021/09/24 03:23:39;;;;;;;6.17;2.40;;;9.00;99.90;8.50;96629.00;;;;4979332;28;20254;-84
2021/09/24 03:26:28;;;;;;;3.07;2.77;;;8.90;99.90;8.50;96639.00;;;;4980605;28;20230;-86
2021/09/24 03:29:17;;;;;;;4.77;2.60;;;8.90;99.90;8.60;96623.00;;;;4991594;28;20205;-84
2021/09/24 03:32:08;;;;;;;6.03;3.13;;;8.90;99.90;8.30;96639.00;;;;4989382;28;20222;-85
2021/09/24 03:34:59;;;;;;;3.03;2.70;;;8.80;99.90;8.40;96645.00;;;;4999768;28;20214;-84
2021/09/24 03:37:50;;;;;;;4.63;3.50;;;8.80;99.90;8.30;96635.00;;;;4973275;28;20691;-83
2021/09/24 03:40:40;;;;;;;4.07;3.10;;;6.60;99.90;8.30;96638.00;;;;4979874;28;20212;-85
2021/09/24 03:43:29;;;;;;;3.47;2.37;;;8.70;99.90;8.30;96645.00;;;;4974766;28;20231;-83
2021/09/24 03:46:19;;;;;;;3.73;2.90;;;8.70;99.90;8.20;96642.00;;;;4973299;28;20220;-85
2021/09/24 03:49:08;;;;;;;3.17;2.87;;;8.60;99.90;8.20;96638.00;;;;4974090;28;20215;-83
2021/09/24 03:51:59;;;;;;;4.73;3.23;;;8.60;99.90;8.20;96626.00;;;;4973550;28;20244;-85
2021/09/24 03:54:50;;;;;;;3.23;2.63;;;8.50;99.90;8.20;96633.00;;;;4974649;28;20665;-85
2021/09/24 03:57:39;;;;;;;3.00;2.50;;;8.50;99.90;8.20;96630.00;;;;4973495;28;20259;-84
2021/09/24 04:00:39;;;;;;;4.17;2.80;;;8.50;99.90;8.20;96631.00;;;;4974990;28;20215;-84
2021/09/24 04:03:28;;;;;;;4.33;3.27;;;8.40;99.90;8.20;96620.00;;;;4981142;28;20227;-85
2021/09/24 04:06:18;;;;;;;3.87;2.70;;;8.40;99.90;7.90;96618.00;;;;4993461;28;20297;-86
2021/09/24 04:09:07;;;;;;;3.60;2.80;;;8.40;99.90;8.00;96609.00;;;;4992979;28;20207;-85
2021/09/24 04:11:57;;;;;;;4.03;3.53;;;8.30;99.90;8.10;96621.00;;;;4993228;28;20677;-86
2021/09/24 04:14:46;;;;;;;2.80;2.60;;;8.30;99.90;7.90;96612.00;;;;4988039;28;20203;-85
2021/09/24 04:17:35;;;;;;;3.33;2.83;;;8.30;99.90;7.90;96610.00;;;;4972897;28;20203;-86
2021/09/24 04:20:24;;;;;;;3.07;2.77;;;8.30;99.90;8.00;96616.00;;;;4972515;28;20772;-87
2021/09/24 04:23:13;;;;;;;3.20;2.70;;;8.30;99.90;7.50;96616.00;;;;4973798;28;20233;-84
2021/09/24 04:26:03;;;;;;;5.17;3.10;;;8.20;99.90;7.80;96613.00;;;;4973435;28;20674;-85
2021/09/24 04:28:53;;;;;;;4.77;3.30;;;8.10;99.90;7.80;96615.00;;;;4972732;28;20795;-87
2021/09/24 04:31:42;;;;;;;3.97;2.93;;;8.10;99.90;7.80;96613.00;;;;4972874;28;20638;-85
2021/09/24 04:34:31;;;;;;;4.63;3.00;;;8.10;99.90;7.70;96620.00;;;;4985545;28;20229;-83
2021/09/24 04:37:20;;;;;;;4.13;3.33;;;8.10;99.90;7.70;96630.00;;;;4983077;28;20599;-84
2021/09/24 04:40:11;;;;;;;3.73;3.00;;;8.10;99.90;7.70;96629.00;;;;4972823;28;20210;-86
2021/09/24 04:43:00;;;;;;;5.53;2.43;;;8.10;99.90;7.40;96629.00;;;;4983159;28;20241;-86
2021/09/24 04:45:51;;;;;;;2.67;2.33;;;8.00;99.90;7.60;96635.00;;;;4993376;28;20210;-82
2021/09/24 04:48:40;;;;;;;2.67;2.37;;;8.00;99.90;7.50;96637.00;;;;4993393;28;20703;-84
2021/09/24 04:51:29;;;;;;;4.47;2.77;;;8.00;99.90;7.70;96641.00;;;;4971692;28;20215;-84
2021/09/24 04:54:18;;;;;;;2.60;2.40;;;7.90;99.90;7.70;96647.00;;;;4991711;28;20233;-83
2021/09/24 04:57:07;;;;;;;3.00;2.50;;;8.00;99.90;7.60;96637.00;;;;4996112;28;20210;-85
2021/09/24 04:59:56;;;;;;;3.43;3.00;;;7.90;99.90;7.50;96640.00;;;;4992465;28;20715;-85
2021/09/24 05:02:46;;;;;;;3.67;2.90;;;7.90;99.90;7.80;96644.00;;;;4980748;28;20234;-84
2021/09/24 05:05:35;;;;;;;2.93;2.53;;;6.60;99.90;7.70;96645.00;;;;4990771;28;20588;-82
2021/09/24 05:08:24;;;;;;;4.53;2.90;;;8.00;99.90;7.90;96646.00;;;;4990402;28;20233;-84
2021/09/24 05:11:13;;;;;;;4.23;2.30;;;8.10;99.90;8.10;96646.00;;;;4991049;28;20195;-85
2021/09/24 05:14:04;;;;;;;5.97;2.47;;;8.20;99.90;7.90;96657.00;;;;5008020;28;20517;-82
2021/09/24 05:16:53;;;;;;;3.77;2.13;;;8.20;99.90;7.70;96658.00;;;;5014876;28;20202;-83
2021/09/24 05:19:43;;;;;;;7.13;3.10;;;8.20;99.90;7.90;96656.00;;;;5005704;28;20206;-82
2021/09/24 05:22:32;;;;;;;7.13;3.13;;;8.20;99.90;7.90;96656.00;;;;4997569;28;20225;-85
2021/09/24 05:25:22;;;;;;;7.60;3.23;;;8.20;99.90;7.80;96657.00;;;;4991785;28;20217;-87
2021/09/24 05:28:11;;;;;;;3.43;3.13;;;8.30;99.90;8.00;96666.00;;;;4991982;28;20241;-85
2021/09/24 05:31:00;;;;;;;7.03;3.27;;;8.20;99.90;8.10;96664.00;;;;4986402;28;20234;-84
2021/09/24 05:33:49;;;;;;;3.83;2.67;;;8.30;99.90;8.20;96674.00;;;;4989243;28;20226;-85
2021/09/24 05:36:39;;;;;;;3.67;2.93;;;8.30;99.90;8.30;96682.00;;;;4999530;28;20198;-86
2021/09/24 05:39:27;;;;;;;2.60;2.40;;;8.40;99.90;8.30;96677.00;;;;4990407;28;20205;-87
2021/09/24 05:42:17;;;;;;;3.93;2.20;;;8.50;99.90;8.50;96679.00;;;;4994828;28;20206;-88
2021/09/24 05:45:11;;;;;;;5.53;3.13;;;8.60;99.90;8.30;96691.00;;;;4986773;28;20210;-88
2021/09/24 05:47:59;;;;;;;5.43;3.43;;;8.60;99.90;8.50;96691.00;;;;4991688;28;20222;-87
2021/09/24 05:50:48;;;;;;;3.87;2.50;;;8.70;99.90;8.70;96682.00;;;;4990215;28;20707;-84
2021/09/24 05:53:39;;;;;;;3.67;2.90;;;8.80;99.90;8.90;96682.00;;;;4991355;28;20241;-88
2021/09/24 05:56:28;;;;;;;4.93;3.53;;;8.90;99.90;9.00;96684.00;;;;4997341;28;20201;-87
2021/09/24 05:59:16;;;;;;;9.20;3.00;;;9.00;99.90;9.10;96689.00;;;;4979372;28;20211;-85
2021/09/24 06:02:06;;;;;;;6.00;2.73;;;9.10;99.90;8.90;96690.00;;;;4980720;28;20221;-87
2021/09/24 06:04:54;;;;;;;2.87;2.23;;;9.20;99.90;9.10;96694.00;;;;4992303;28;20202;-86
2021/09/24 06:07:44;;;;;;;6.97;2.67;;;9.20;99.90;9.30;96692.00;;;;4992625;28;20645;-85
2021/09/24 06:10:35;;;;;;;3.63;2.60;;;9.30;99.90;9.30;96687.00;;;;4990763;28;20211;-85
2021/09/24 06:13:24;;;;;;;3.73;3.10;;;9.40;99.90;9.50;96691.00;;;;4991772;28;20237;-82
2021/09/24 06:16:13;;;;;;;3.27;2.60;;;9.50;99.90;9.70;96701.00;;;;4992063;28;20210;-84
2021/09/24 06:19:02;;;;;;;4.90;2.27;;;9.70;99.90;9.90;96700.00;;;;4981041;28;20562;-85
2021/09/24 06:21:51;;;;;;;4.10;2.20;;;9.80;99.90;10.00;96700.00;;;;4975036;28;20216;-84
2021/09/24 06:24:43;;;;;;;2.93;2.63;;;9.90;99.90;10.10;96704.00;;;;4973696;28;20203;-85
2021/09/24 06:27:36;;;;;;;2.67;2.40;;;10.10;99.90;10.20;96694.00;;;;5005274;28;20233;-83
2021/09/24 06:30:25;;;;;;;3.03;2.67;;;10.20;99.90;10.30;96698.00;;;;4991924;28;20210;-85
2021/09/24 06:33:14;;;;;;;3.67;2.03;;;10.30;99.90;10.50;96705.00;;;;4994386;28;20241;-83
2021/09/24 06:36:03;;;;;;;4.07;2.03;;;10.40;99.90;10.70;96702.00;;;;5004109;28;20214;-87
2021/09/24 06:38:52;;;;;;;2.30;1.77;;;10.60;99.90;10.80;96699.00;;;;4992385;28;20198;-87
2021/09/24 06:41:41;;;;;;;2.07;1.77;;;10.70;99.90;11.00;96714.00;;;;4989447;28;20741;-83
2021/09/24 06:44:31;;;;;;;7.60;2.80;;;10.80;99.90;11.00;96711.00;;;;4990346;28;20241;-84
2021/09/24 06:47:20;;;;;;;1.77;1.67;;;11.00;99.90;10.90;96713.00;;;;4991621;28;20237;-84
2021/09/24 06:50:11;;;;;;;2.83;2.23;;;11.10;99.90;11.00;96711.00;;;;4990466;28;20222;-84
2021/09/24 06:53:00;;;;;;;1.87;1.70;;;12.30;99.90;11.20;96720.00;;;;4990681;28;20644;-83
2021/09/24 06:55:49;;;;;;;2.50;1.90;;;12.10;99.90;11.40;96706.00;;;;4990623;28;20219;-85
2021/09/24 06:58:38;;;;;;;2.63;2.43;;;11.30;99.90;11.70;96701.00;;;;4990583;28;20217;-85
2021/09/24 07:01:28;;;;;;;2.03;1.83;;;11.40;99.90;12.10;96707.00;;;;4992430;28;20575;-85
2021/09/24 07:04:17;;;;;;;2.70;2.10;;;11.60;99.90;12.20;96699.00;;;;4997703;28;20317;-85
2021/09/24 07:07:06;;;;;;;2.70;1.67;;;11.80;99.90;12.40;96700.00;;;;4987617;28;20207;-82
2021/09/24 07:09:58;;;;;;;1.70;1.60;;;12.00;99.90;12.30;96705.00;;;;4995260;28;20207;-84
2021/09/24 07:12:48;;;;;;;5.27;1.83;;;12.20;99.90;12.50;96707.00;;;;4995812;28;20233;-83
2021/09/24 07:15:42;;;;;;;1.90;1.73;;;12.40;99.90;12.80;96712.00;;;;5002957;28;20560;-83
2021/09/24 07:18:33;;;;;;;1.90;1.63;;;12.50;99.90;13.10;96728.00;;;;5006170;28;20216;-83
2021/09/24 07:21:22;;;;;;;2.20;2.00;;;12.70;99.90;13.40;96714.00;;;;5003818;28;20196;-84
2021/09/24 07:24:11;;;;;;;2.50;2.30;;;12.90;99.90;13.80;96729.00;;;;5000906;28;20226;-84
2021/09/24 07:27:01;;;;;;;3.37;2.53;;;13.20;99.90;14.00;96729.00;;;;5001166;28;20444;-84
2021/09/24 07:29:51;;;;;;;6.27;2.90;;;13.50;99.90;14.10;96734.00;;;;4987761;28;20210;-84
2021/09/24 07:32:41;;;;;;;3.27;2.97;;;13.70;99.90;14.40;96731.00;;;;5002847;28;20624;-85
2021/09/24 07:35:31;;;;;;;3.73;2.67;;;13.90;99.90;14.70;96730.00;;;;5014097;28;20224;-83
2021/09/24 07:38:21;;;;;;;5.03;2.83;;;14.20;99.90;14.80;96724.00;;;;5001592;28;20218;-84
2021/09/24 07:41:10;;;;;;;4.17;2.67;;;14.40;99.90;15.20;96729.00;;;;4999963;28;20222;-84
2021/09/24 07:44:00;;;;;;;6.00;3.03;;;14.60;99.90;15.40;96742.00;;;;5002573;28;20226;-83
2021/09/24 07:46:51;;;;;;;6.13;2.90;;;14.80;99.90;15.80;96751.00;;;;5006443;28;20209;-84
2021/09/24 07:49:41;;;;;;;5.77;2.93;;;15.10;99.90;15.90;96732.00;;;;4995181;28;20242;-84
2021/09/24 07:53:09;;;;;;;5.33;2.60;;;15.30;99.90;16.10;96746.00;;;;5190981;27;20576;-70
2021/09/24 07:55:57;;;;;;;5.50;3.07;;;15.50;99.90;16.30;96752.00;;;;5163457;27;20200;-70
2021/09/24 07:58:46;;;;;;;6.57;3.37;;;15.80;99.90;16.50;96748.00;;;;5163383;27;20204;-69
2021/09/24 08:01:35;;;;;;;4.37;2.47;;;15.90;99.90;16.80;96760.00;;;;5154764;27;20232;-70
2021/09/24 08:04:24;;;;;;;7.63;3.33;;;16.10;99.90;17.10;96757.00;;;;5145101;27;20200;-69
2021/09/24 08:07:13;;;;;;;6.97;2.90;;;16.40;99.90;17.10;96757.00;;;;5153439;27;20207;-69
2021/09/24 08:10:04;;;;;;;3.20;2.70;;;16.60;99.90;17.40;96757.00;;;;5153504;27;20201;-69
2021/09/24 08:12:53;;;;;;;5.20;2.90;;;16.80;99.90;17.60;96764.00;;;;5159720;27;20211;-69
2021/09/24 08:15:43;;;;;;;3.07;2.40;;;17.00;99.90;17.90;96757.00;;;;5163080;27;20678;-69
2021/09/24 08:18:32;;;;;;;4.83;2.47;;;17.20;99.90;17.70;96756.00;;;;5164323;27;20207;-70
2021/09/24 08:21:22;;;;;;;4.03;3.00;;;17.40;99.90;17.90;96761.00;;;;5162943;27;20222;-70
2021/09/24 08:24:10;;;;;;;7.67;2.77;;;17.50;99.90;18.20;96757.00;;;;5164125;27;20216;-69
2021/09/24 08:27:01;;;;;;;4.47;2.70;;;17.60;99.90;18.30;96762.00;;;;5162940;27;20674;-69
2021/09/24 08:29:49;;;;;;;3.30;3.00;;;17.80;99.90;18.40;96761.00;;;;5152499;27;20591;-69
2021/09/24 08:32:39;;;;;;;3.10;2.57;;;17.90;99.90;18.60;96765.00;;;;5142409;27;20229;-69
2021/09/24 08:35:28;;;;;;;4.90;2.60;;;18.00;99.90;18.70;96765.00;;;;5141599;27;20556;-69
2021/09/24 08:38:17;;;;;;;3.23;2.37;;;18.20;99.90;18.90;96758.00;;;;5148614;27;20220;-69
2021/09/24 08:41:06;;;;;;;4.40;2.00;;;18.30;99.90;19.10;96746.00;;;;5151050;27;20212;-70
2021/09/24 08:43:58;;;;;;;7.23;1.97;;;18.50;99.90;19.30;96758.00;;;;5158040;27;20209;-69
2021/09/24 08:46:49;;;;;;;3.03;2.67;;;18.60;99.90;19.70;96763.00;;;;5154257;27;20659;-69
2021/09/24 08:49:39;;;;;;;2.73;1.97;;;18.80;99.90;19.90;96767.00;;;;5157060;27;20692;-69
2021/09/24 08:52:28;;;;;;;4.93;2.13;;;19.10;99.90;20.20;96759.00;;;;5145265;27;20240;-70
2021/09/24 08:55:17;;;;;;;8.73;3.33;;;19.40;99.90;20.30;96774.00;;;;5156140;27;20578;-70
2021/09/24 08:58:06;;;;;;;12.67;3.43;;;19.60;99.90;20.60;96756.00;;;;5148668;27;20197;-72
2021/09/24 09:00:57;;;;;;;11.33;3.33;;;19.80;99.90;20.70;96759.00;;;;5156524;27;20224;-71
2021/09/24 09:03:48;;;;;;;12.43;4.20;;;20.00;99.90;20.90;96765.00;;;;5141422;27;20198;-70
2021/09/24 09:06:37;;;;;;;7.93;3.30;;;20.20;99.90;21.10;96762.00;;;;5141186;27;20218;-70
2021/09/24 09:09:34;;;;;;;10.47;3.93;;;20.40;99.90;21.30;96758.00;;;;5133490;27;20214;-69
2021/09/24 09:12:27;;;;;;;12.23;3.40;;;20.60;99.90;21.80;96759.00;;;;5133764;27;20582;-69
2021/09/24 09:15:17;;;;;;;10.13;3.60;;;20.80;98.50;21.90;96762.00;;;;5137057;27;20698;-69
2021/09/24 09:18:07;;;;;;;7.07;3.10;;;21.00;97.70;22.20;96757.00;;;;5135591;27;20454;-69
2021/09/24 09:20:56;;;;;;;10.90;3.90;;;21.20;95.80;22.40;96765.00;;;;5147268;27;20248;-69
2021/09/24 09:23:52;;;;;;;7.57;3.23;;;21.40;94.60;22.60;96751.00;;;;5149672;27;20216;-69
2021/09/24 09:26:41;;;;;;;4.30;2.57;;;21.70;94.10;22.70;96756.00;;;;5137516;27;20205;-70
2021/09/24 09:29:30;;;;;;;8.27;3.43;;;21.90;92.50;22.70;96758.00;;;;5146534;27;20201;-70
2021/09/24 09:32:24;;;;;;;10.40;3.93;;;22.00;90.30;22.90;96757.00;;;;5148627;27;20236;-69
2021/09/24 09:35:14;;;;;;;11.50;5.03;;;22.10;90.50;23.10;96745.00;;;;5147831;27;20250;-69
2021/09/24 09:38:03;;;;;;;16.43;4.73;;;22.30;91.20;23.40;96743.00;;;;5136137;27;20209;-69
2021/09/24 09:40:57;;;;;;;8.43;3.20;;;22.40;91.70;23.50;96745.00;;;;5145939;27;20221;-69
2021/09/24 09:43:51;;;;;;;8.97;3.37;;;22.60;90.00;23.60;96746.00;;;;5139632;27;20717;-68
2021/09/24 09:46:39;;;;;;;8.07;3.00;;;22.80;84.80;23.70;96746.00;;;;5144120;27;20205;-69
2021/09/24 09:49:31;;;;;;;7.63;2.63;;;22.90;80.00;24.00;96741.00;;;;5135393;27;20197;-69
2021/09/24 09:52:21;;;;;;;3.80;2.07;;;23.10;80.50;24.00;96747.00;;;;5132924;27;20233;-69
2021/09/24 09:55:12;;;;;;;5.90;2.73;;;23.20;78.20;24.20;96745.00;;;;5147827;27;20213;-69
2021/09/24 09:58:06;;;;;;;6.90;2.90;;;23.40;78.10;24.50;96741.00;;;;5136660;27;20271;-69
2021/09/24 10:01:08;;;;;;;2.97;2.13;;;23.50;78.10;24.10;96742.00;;;;5145956;27;20228;-70
2021/09/24 10:03:57;;;;;;;9.67;2.50;;;23.70;73.20;24.70;96741.00;;;;5143775;27;20211;-70
2021/09/24 10:06:48;;;;;;;4.67;2.90;;;23.80;75.00;24.90;96748.00;;;;5125732;27;20217;-70
2021/09/24 10:09:38;;;;;;;4.60;3.10;;;24.00;75.90;24.60;96741.00;;;;5134722;27;20210;-70
2021/09/24 10:12:27;;;;;;;8.37;2.73;;;24.00;72.80;25.00;96742.00;;;;5104834;28;20834;-70
2021/09/24 10:15:17;;;;;;;6.17;2.50;;;24.10;74.30;25.30;96748.00;;;;5119474;27;20202;-69
2021/09/24 10:18:05;;;;;;;6.77;3.10;;;24.30;74.60;25.40;96736.00;;;;5146896;27;20201;-69
2021/09/24 10:20:55;;;;;;;6.87;3.00;;;24.40;74.00;25.40;96741.00;;;;5146244;27;20226;-69
2021/09/24 10:23:44;;;;;;;2.50;2.23;;;24.60;73.10;25.70;96734.00;;;;5146667;27;20268;-69
2021/09/24 10:26:40;;;;;;;4.50;1.80;;;24.70;72.20;25.70;96744.00;;;;5137239;27;20205;-69
2021/09/24 10:29:32;;;;;;;6.20;2.80;;;24.80;71.20;25.90;96728.00;;;;5146694;27;20201;-70
2021/09/24 10:32:24;;;;;;;4.53;2.33;;;24.90;69.60;26.20;96730.00;;;;5147324;27;20451;-70
2021/09/24 10:35:13;;;;;;;2.13;1.60;;;25.10;68.80;26.30;96728.00;;;;5146368;27;20204;-70
2021/09/24 10:38:09;;;;;;;2.97;1.90;;;25.30;67.00;26.80;96733.00;;;;5137619;27;20576;-71
2021/09/24 10:41:05;;;;;;;4.30;1.73;;;25.60;66.60;27.20;96729.00;;;;5138697;27;20240;-70
2021/09/24 10:43:59;;;;;;;2.53;1.97;;;25.80;65.70;27.60;96725.00;;;;5139907;27;20193;-71
2021/09/24 10:46:47;;;;;;;4.00;2.00;;;26.30;64.20;27.90;96731.00;;;;5128023;27;20207;-70
2021/09/24 10:49:36;;;;;;;2.87;1.40;;;26.60;63.70;28.00;96722.00;;;;5145611;27;20207;-71
2021/09/24 10:52:36;;;;;;;3.10;2.03;;;26.80;61.50;28.00;96718.00;;;;5146949;27;20219;-70
2021/09/24 10:55:25;;;;;;;2.25;1.83;;;27.10;59.40;28.60;96720.00;;;;5146119;27;20211;-71
2021/09/24 10:58:40;;;;;;;3.58;2.08;;;27.30;59.80;28.80;96714.00;;;;5147179;27;20208;-71
2021/09/24 11:01:40;;;;;;;4.43;2.17;;;27.70;58.60;29.10;96712.00;;;;5145877;27;20228;-71
2021/09/24 11:04:43;;;;;;;4.95;1.90;;;28.00;57.80;28.90;96703.00;;;;5145811;27;20200;-70
2021/09/24 11:07:34;;;;;;;7.05;2.22;;;28.10;55.70;29.20;96708.00;;;;5144084;27;20686;-70
2021/09/24 11:10:37;;;;;;;3.28;2.00;;;28.30;56.00;29.80;96704.00;;;;5125555;27;20189;-70
2021/09/24 11:13:28;;;;;;;5.38;2.33;;;28.50;56.10;30.20;96708.00;;;;5132959;27;20224;-70
2021/09/24 11:16:19;;;;;;;2.72;2.10;;;28.90;56.60;30.20;96703.00;;;;5144118;27;20217;-70
2021/09/24 11:19:33;;;;;;;7.15;2.50;;;29.10;56.00;30.20;96691.00;;;;5147022;27;20199;-71
2021/09/24 11:22:37;;;;;;;11.63;3.45;;;29.30;54.90;30.30;96694.00;;;;5145742;27;20216;-71
2021/09/24 11:25:29;;;;;;;3.40;1.73;;;29.40;54.70;29.40;96696.00;;;;5146183;27;20678;-71
2021/09/24 11:28:33;;;;;;;3.15;2.28;;;29.50;51.60;28.00;96689.00;;;;5146330;27;20220;-70
2021/09/24 11:32:03;;;;;;;1.77;1.58;;;28.80;50.30;27.40;96685.00;;;;5134354;27;20612;-67
2021/09/24 11:34:58;;;;;;;2.05;1.48;;;28.30;50.00;28.90;96685.00;;;;5139107;27;20691;-67
2021/09/24 11:37:47;;;;;;;2.30;1.70;;;28.10;50.70;29.80;96683.00;;;;5112482;27;20197;-68
2021/09/24 11:40:37;;;;;;;1.90;1.77;;;28.40;52.40;30.60;96678.00;;;;5126326;27;20245;-68
2021/09/24 11:43:29;;;;;;;7.30;1.88;;;28.80;53.90;31.00;96678.00;;;;5128551;27;20206;-68
2021/09/24 11:46:23;;;;;;;3.00;1.95;;;29.30;53.90;31.70;96672.00;;;;5111939;27;20190;-68
2021/09/24 11:49:12;;;;;;;3.03;1.77;;;29.80;53.40;32.20;96669.00;;;;5120780;27;20205;-67
2021/09/24 11:52:03;;;;;;;5.35;2.33;;;30.40;53.00;32.40;96672.00;;;;5124558;28;20461;-67
2021/09/24 11:54:52;;;;;;;1.90;1.42;;;30.80;52.20;30.40;96664.00;;;;5127731;28;20216;-68
2021/09/24 11:57:41;;;;;;;6.85;1.30;;;30.90;48.20;29.30;96667.00;;;;5127685;28;20680;-68
2021/09/24 12:00:34;;;;;;;1.40;1.30;;;30.50;47.20;27.90;96653.00;;;;5126641;28;20206;-69
2021/09/24 12:03:25;;;;;;;2.75;1.63;;;29.50;47.90;28.80;96653.00;;;;5126140;28;20197;-68
2021/09/24 12:06:14;;;;;;;3.45;1.85;;;28.90;48.60;30.50;96656.00;;;;5107760;28;21025;-67
2021/09/24 12:09:08;;;;;;;3.42;1.55;;;;;31.60;96649.00;;;;5127676;27;20194;-67
2021/09/24 12:11:57;;;;;;;1.67;1.58;;;28.70;50.60;32.00;96653.00;;;;5104734;28;20230;-69
2021/09/24 12:14:56;;;;;;;2.67;1.48;;;29.90;50.70;32.70;96655.00;;;;5113820;27;20252;-67
2021/09/24 12:17:45;;;;;;;4.40;1.75;;;30.50;50.10;33.30;96654.00;;;;5132895;27;20201;-67
2021/09/24 12:20:34;;;;;;;1.38;1.27;;;31.10;49.60;33.10;96646.00;;;;5132735;27;20220;-67
2021/09/24 12:23:23;;;;;;;3.17;1.70;;;31.60;48.60;33.80;96648.00;;;;5124073;27;20556;-68
2021/09/24 12:26:13;;;;;;;2.15;1.65;;;32.10;47.80;33.50;96647.00;;;;5125126;27;20523;-67
2021/09/24 12:29:06;;;;;;;2.33;1.65;;;32.30;46.20;33.70;96635.00;;;;5140895;27;20676;-67
2021/09/24 12:31:58;;;;;;;1.58;1.48;;;32.50;46.30;33.80;96641.00;;;;5133333;27;20234;-68
2021/09/24 12:34:50;;;;;;;1.60;1.50;;;32.60;45.30;34.20;96641.00;;;;5118544;27;20229;-67
2021/09/24 12:37:42;;;;;;;2.95;1.90;;;32.70;46.10;33.70;96636.00;;;;5127181;27;20209;-68
2021/09/24 12:40:31;;;;;;;3.58;1.70;;;32.90;45.50;34.20;96639.00;;;;5128288;27;20741;-67
2021/09/24 12:43:33;;;;;;;1.50;1.40;;;33.00;45.80;34.50;96635.00;;;;5143428;27;20197;-67
2021/09/24 12:46:22;;;;;;;1.80;1.50;;;33.00;45.80;34.40;96640.00;;;;5137318;27;20201;-67